Time;durP1;ratioP1;P1;durP2;ratioP2;P2;SDS_P1;SDS_P2;PMS_P1;PMS_P2;Temp;Humidity;BMP_temperature;BMP_pressure;BME280_temperature;BME280_humidity;BME280_pressure;Samples;Min_cycle;Max_cycle;Signal;HPM_P1;HPM_P2
2021/08/26 00:01:03;;;;;;;1.50;0.90;;;17.60;98.20;;;;;;4977996;28;20472;-75
2021/08/26 00:06:18;;;;;;;1.50;0.90;;;17.60;98.20;;;;;;4961306;28;20493;-76
2021/08/26 00:08:47;;;;;;;1.50;1.00;;;17.60;98.20;;;;;;4984442;28;20968;-76
2021/08/26 00:11:19;;;;;;;1.50;0.90;;;17.60;98.20;;;;;;4961637;28;20572;-76
2021/08/26 00:13:46;;;;;;;1.50;1.00;;;17.60;98.20;;;;;;4982357;28;20520;-75
2021/08/26 00:16:13;;;;;;;1.50;1.00;;;17.60;98.20;;;;;;4967041;28;20494;-75
2021/08/26 00:18:40;;;;;;;1.50;0.97;;;17.60;98.20;;;;;;4972935;28;20617;-76
2021/08/26 00:21:07;;;;;;;1.50;1.00;;;17.60;98.20;;;;;;4970903;28;20535;-76
2021/08/26 00:23:35;;;;;;;1.50;0.90;;;17.60;98.20;;;;;;4982740;28;20508;-75
2021/08/26 00:26:01;;;;;;;1.50;0.90;;;17.60;98.20;;;;;;4964604;28;20473;-75
2021/08/26 00:28:30;;;;;;;1.50;0.93;;;17.60;98.20;;;;;;4980982;28;20470;-75
2021/08/26 00:30:56;;;;;;;1.50;0.97;;;17.60;98.20;;;;;;4962411;28;20466;-75
2021/08/26 00:33:23;;;;;;;1.50;0.90;;;17.50;98.20;;;;;;4977388;28;20473;-76
2021/08/26 00:35:50;;;;;;;1.50;1.23;;;17.50;98.20;;;;;;4965053;28;20475;-75
2021/08/26 00:38:17;;;;;;;1.50;0.93;;;17.50;98.20;;;;;;4993414;28;20457;-76
2021/08/26 00:40:45;;;;;;;1.50;0.90;;;17.40;98.20;;;;;;4971091;28;20836;-76
2021/08/26 00:43:13;;;;;;;1.50;1.00;;;17.40;98.20;;;;;;4960904;28;20489;-77
2021/08/26 00:45:42;;;;;;;1.50;1.00;;;17.30;98.20;;;;;;4971481;28;20465;-76
2021/08/26 00:48:09;;;;;;;1.50;1.10;;;17.30;98.20;;;;;;4991564;28;20492;-77
2021/08/26 00:50:36;;;;;;;1.50;0.90;;;17.30;98.20;;;;;;4987140;28;20457;-77
2021/08/26 00:53:03;;;;;;;1.50;1.00;;;17.30;98.20;;;;;;4981313;28;20493;-79
2021/08/26 00:55:30;;;;;;;1.50;1.00;;;17.30;98.20;;;;;;4977199;28;20477;-77
2021/08/26 00:57:57;;;;;;;1.50;0.90;;;17.20;98.20;;;;;;4980912;28;20494;-76
2021/08/26 01:00:23;;;;;;;1.50;0.90;;;17.20;98.20;;;;;;4974018;28;20468;-77
2021/08/26 01:03:03;;;;;;;1.50;0.90;;;17.20;98.20;;;;;;4977769;28;20477;-76
2021/08/26 01:05:37;;;;;;;1.50;1.00;;;17.20;98.20;;;;;;4967581;28;20473;-76
2021/08/26 01:08:07;;;;;;;1.50;1.00;;;17.20;98.20;;;;;;4974417;28;20492;-75
2021/08/26 01:10:36;;;;;;;1.50;1.10;;;17.20;98.20;;;;;;4973927;28;20591;-76
2021/08/26 01:13:03;;;;;;;1.50;0.90;;;17.20;98.20;;;;;;4970251;28;20505;-76
2021/08/26 01:15:30;;;;;;;1.50;1.00;;;17.10;98.20;;;;;;4964817;28;20476;-76
2021/08/26 01:17:58;;;;;;;1.50;1.00;;;17.10;98.20;;;;;;4962864;28;20494;-76
2021/08/26 01:20:25;;;;;;;1.50;1.00;;;17.10;98.20;;;;;;4983434;28;20463;-76
2021/08/26 01:22:52;;;;;;;1.50;1.00;;;17.10;98.20;;;;;;4974304;28;20702;-76
2021/08/26 01:25:21;;;;;;;1.50;1.00;;;17.10;98.20;;;;;;4965945;28;20857;-76
2021/08/26 01:27:54;;;;;;;1.50;1.00;;;17.00;98.20;;;;;;4972752;28;20484;-76
2021/08/26 01:30:23;;;;;;;1.50;1.00;;;17.00;98.20;;;;;;4976726;28;20461;-77
2021/08/26 01:32:52;;;;;;;1.50;1.00;;;17.00;98.20;;;;;;4983450;28;20484;-75
2021/08/26 01:35:19;;;;;;;1.50;1.00;;;17.00;98.20;;;;;;4969364;28;20477;-75
2021/08/26 01:37:46;;;;;;;1.50;1.00;;;17.00;98.20;;;;;;4959488;28;20497;-75
2021/08/26 01:40:14;;;;;;;1.50;1.00;;;16.90;98.20;;;;;;4975902;28;20737;-76
2021/08/26 01:42:41;;;;;;;1.50;1.00;;;16.90;98.20;;;;;;4973354;28;20566;-75
2021/08/26 01:45:10;;;;;;;1.50;1.00;;;16.80;98.20;;;;;;4980907;28;20474;-74
2021/08/26 01:47:37;;;;;;;1.50;1.00;;;16.90;98.20;;;;;;4977220;28;21014;-76
2021/08/26 01:50:05;;;;;;;1.50;1.00;;;16.90;98.20;;;;;;4978256;28;20803;-75
2021/08/26 01:52:32;;;;;;;1.50;1.00;;;16.90;98.20;;;;;;4976588;28;20485;-76
2021/08/26 01:55:02;;;;;;;1.50;0.90;;;16.90;98.20;;;;;;4970792;28;20462;-76
2021/08/26 01:57:30;;;;;;;1.50;0.90;;;16.90;98.20;;;;;;4982554;28;20576;-76
2021/08/26 01:59:59;;;;;;;1.50;1.00;;;16.90;98.20;;;;;;4982996;28;20465;-77
2021/08/26 02:02:27;;;;;;;1.50;1.00;;;16.90;98.20;;;;;;4974438;28;20489;-75
2021/08/26 02:04:54;;;;;;;1.50;1.00;;;16.90;98.20;;;;;;4974325;28;20466;-76
2021/08/26 02:07:21;;;;;;;1.50;1.00;;;16.80;98.20;;;;;;4958853;28;20851;-77
2021/08/26 02:09:48;;;;;;;1.50;1.00;;;16.90;98.20;;;;;;4967856;28;20476;-78
2021/08/26 02:12:14;;;;;;;1.50;1.10;;;16.90;98.20;;;;;;4967149;28;20501;-77
2021/08/26 02:14:41;;;;;;;1.50;0.90;;;16.90;98.20;;;;;;4976643;28;20565;-75
2021/08/26 02:17:08;;;;;;;1.50;1.00;;;16.90;98.20;;;;;;4973839;28;20480;-76
2021/08/26 02:19:37;;;;;;;1.50;1.00;;;16.90;98.20;;;;;;4981116;28;20477;-76
2021/08/26 02:22:04;;;;;;;1.50;1.00;;;16.90;98.20;;;;;;4971973;28;20489;-77
2021/08/26 02:24:30;;;;;;;1.50;1.00;;;16.80;98.20;;;;;;4984498;28;20465;-77
2021/08/26 02:26:57;;;;;;;1.50;1.00;;;16.80;98.20;;;;;;4975928;28;20778;-76
2021/08/26 02:29:24;;;;;;;1.50;1.00;;;16.80;98.20;;;;;;4981208;28;20461;-76
2021/08/26 02:31:51;;;;;;;1.50;1.00;;;16.70;98.20;;;;;;4975867;28;20492;-75
2021/08/26 02:34:18;;;;;;;1.50;0.93;;;16.60;98.20;;;;;;4978489;28;20462;-76
2021/08/26 02:36:46;;;;;;;1.50;0.97;;;16.60;98.20;;;;;;4973266;28;20836;-76
2021/08/26 02:39:13;;;;;;;1.50;0.93;;;16.50;98.20;;;;;;4986939;28;20893;-76
2021/08/26 02:41:40;;;;;;;1.50;0.90;;;16.50;98.20;;;;;;4971405;28;20857;-76
2021/08/26 02:44:07;;;;;;;1.50;1.00;;;16.50;98.20;;;;;;4983649;28;20474;-75
2021/08/26 02:46:34;;;;;;;1.50;1.00;;;16.50;98.20;;;;;;4975424;28;20496;-76
2021/08/26 02:49:01;;;;;;;1.50;1.00;;;16.50;98.20;;;;;;4989684;28;20490;-76
2021/08/26 02:51:28;;;;;;;1.50;1.00;;;16.50;98.20;;;;;;4964261;28;20643;-76
2021/08/26 02:53:56;;;;;;;1.50;1.00;;;16.50;98.20;;;;;;4986351;28;20470;-75
2021/08/26 02:56:22;;;;;;;1.50;1.00;;;16.40;98.20;;;;;;4971427;28;20485;-76
2021/08/26 02:58:49;;;;;;;1.50;1.00;;;16.40;98.20;;;;;;4992224;28;20981;-75
2021/08/26 03:01:16;;;;;;;1.50;1.00;;;16.40;98.20;;;;;;4966935;28;21035;-75
2021/08/26 03:03:43;;;;;;;1.50;1.00;;;16.40;98.20;;;;;;4990735;28;20485;-75
2021/08/26 03:06:10;;;;;;;1.50;1.00;;;16.30;98.20;;;;;;4966439;28;20713;-75
2021/08/26 03:08:36;;;;;;;1.50;1.00;;;16.30;98.20;;;;;;4971118;28;20455;-76
2021/08/26 03:11:04;;;;;;;1.50;0.90;;;16.30;98.20;;;;;;4968646;28;20466;-76
2021/08/26 03:13:31;;;;;;;1.50;1.00;;;16.30;98.20;;;;;;4983598;28;20485;-75
2021/08/26 03:15:58;;;;;;;1.50;0.90;;;16.30;98.20;;;;;;4961779;28;20969;-76
2021/08/26 03:18:25;;;;;;;1.50;1.00;;;16.30;98.20;;;;;;4985296;28;20951;-74
2021/08/26 03:20:52;;;;;;;1.50;1.00;;;16.30;98.20;;;;;;4972425;28;20516;-76
2021/08/26 03:23:19;;;;;;;1.60;1.20;;;16.30;98.20;;;;;;4986028;28;20853;-75
2021/08/26 03:25:45;;;;;;;1.50;0.90;;;16.30;98.20;;;;;;4970363;28;20453;-75
2021/08/26 03:28:15;;;;;;;1.50;1.00;;;16.30;98.20;;;;;;4965015;28;21065;-76
2021/08/26 03:30:42;;;;;;;1.50;1.00;;;16.30;98.20;;;;;;4978594;28;20887;-75
2021/08/26 03:33:09;;;;;;;1.50;0.90;;;16.30;98.20;;;;;;4987799;28;20851;-76
2021/08/26 03:35:35;;;;;;;1.50;1.00;;;16.30;98.20;;;;;;4972197;28;20823;-75
2021/08/26 03:38:03;;;;;;;1.50;1.00;;;16.30;98.20;;;;;;4966571;28;20913;-76
2021/08/26 03:40:30;;;;;;;1.50;1.00;;;16.30;98.20;;;;;;4984677;28;20487;-76
2021/08/26 03:42:57;;;;;;;1.50;1.00;;;16.20;98.20;;;;;;4967339;28;20489;-76
2021/08/26 03:45:25;;;;;;;1.50;1.00;;;16.20;98.20;;;;;;4986249;28;20472;-75
2021/08/26 03:47:52;;;;;;;1.50;0.90;;;16.30;98.20;;;;;;4980334;28;20477;-75
2021/08/26 03:50:18;;;;;;;1.50;0.90;;;16.30;98.20;;;;;;4979127;28;20965;-76
2021/08/26 03:52:45;;;;;;;1.50;1.00;;;16.30;98.20;;;;;;4978873;28;20523;-76
2021/08/26 03:55:12;;;;;;;1.50;1.00;;;16.30;98.20;;;;;;4977437;28;20473;-77
2021/08/26 03:57:39;;;;;;;1.50;1.00;;;16.20;98.20;;;;;;4971825;28;20661;-77
2021/08/26 04:00:07;;;;;;;1.50;1.00;;;16.20;98.20;;;;;;4972534;28;20473;-78
2021/08/26 04:02:35;;;;;;;1.50;0.97;;;16.20;98.20;;;;;;4975495;28;20499;-77
2021/08/26 04:05:02;;;;;;;1.50;1.00;;;16.20;98.20;;;;;;4974605;28;20559;-77
2021/08/26 04:07:31;;;;;;;1.50;1.00;;;16.20;98.20;;;;;;4964064;28;20489;-78
2021/08/26 04:09:58;;;;;;;1.50;1.00;;;16.10;98.20;;;;;;4979431;28;20469;-77
2021/08/26 04:12:26;;;;;;;1.50;1.00;;;16.10;98.20;;;;;;4966647;28;20552;-77
2021/08/26 04:14:53;;;;;;;1.50;1.00;;;16.10;98.20;;;;;;4974418;28;20469;-77
2021/08/26 04:17:20;;;;;;;1.50;0.90;;;16.20;98.20;;;;;;4972079;28;20755;-77
2021/08/26 04:19:49;;;;;;;1.50;1.00;;;16.20;98.20;;;;;;4983593;28;20470;-77
2021/08/26 04:22:16;;;;;;;1.50;1.00;;;16.20;98.20;;;;;;4983925;28;20982;-77
2021/08/26 04:24:43;;;;;;;1.50;0.90;;;16.20;98.20;;;;;;4976706;28;20474;-77
2021/08/26 04:27:10;;;;;;;1.50;0.90;;;16.30;98.20;;;;;;4972164;28;20515;-77
2021/08/26 04:29:37;;;;;;;1.50;1.00;;;16.30;98.20;;;;;;4993749;28;20461;-77
2021/08/26 04:32:04;;;;;;;1.50;1.00;;;16.20;98.20;;;;;;4980521;28;20489;-77
2021/08/26 04:34:31;;;;;;;1.50;1.00;;;16.20;98.20;;;;;;4978753;28;20489;-77
2021/08/26 04:37:00;;;;;;;1.50;1.00;;;16.20;98.20;;;;;;4966531;28;20517;-77
2021/08/26 04:39:27;;;;;;;1.50;1.00;;;16.30;98.20;;;;;;4983838;28;20808;-77
2021/08/26 04:41:53;;;;;;;1.50;0.97;;;16.30;98.20;;;;;;4968707;28;20496;-77
2021/08/26 04:44:20;;;;;;;1.50;0.97;;;16.30;98.20;;;;;;4985165;28;20481;-77
2021/08/26 04:46:47;;;;;;;1.50;1.00;;;16.30;98.20;;;;;;4978187;28;20512;-76
2021/08/26 04:49:14;;;;;;;1.50;0.97;;;16.30;98.20;;;;;;4986858;28;20465;-76
2021/08/26 04:51:41;;;;;;;1.50;1.00;;;16.30;98.20;;;;;;4984964;28;20900;-76
2021/08/26 04:54:09;;;;;;;1.50;1.00;;;16.30;98.20;;;;;;4986377;28;20480;-75
2021/08/26 04:56:36;;;;;;;1.50;1.00;;;16.30;98.20;;;;;;4963522;28;20575;-76
2021/08/26 04:59:03;;;;;;;1.50;1.00;;;16.30;98.20;;;;;;4988643;28;20856;-76
2021/08/26 05:01:30;;;;;;;1.50;1.00;;;16.30;98.20;;;;;;4967381;28;21173;-76
2021/08/26 05:03:57;;;;;;;1.50;1.00;;;16.30;98.20;;;;;;4983139;28;20472;-76
2021/08/26 05:06:24;;;;;;;1.50;1.00;;;16.30;98.20;;;;;;4964376;28;20632;-75
2021/08/26 05:08:51;;;;;;;1.50;0.90;;;16.30;98.20;;;;;;4984339;28;20461;-76
2021/08/26 05:11:21;;;;;;;1.50;1.00;;;16.30;98.20;;;;;;4962170;28;20645;-76
2021/08/26 05:13:49;;;;;;;1.50;1.00;;;16.30;98.20;;;;;;4986648;28;20462;-76
2021/08/26 05:16:16;;;;;;;1.50;1.00;;;16.20;98.20;;;;;;4960467;28;20557;-76
2021/08/26 05:18:43;;;;;;;1.50;1.00;;;16.20;98.20;;;;;;4966362;28;20504;-76
2021/08/26 05:21:10;;;;;;;1.50;0.90;;;16.10;98.20;;;;;;4958844;28;20488;-77
2021/08/26 05:23:37;;;;;;;1.50;1.00;;;16.10;98.20;;;;;;4968943;28;20474;-76
2021/08/26 05:26:06;;;;;;;1.50;1.00;;;16.10;98.20;;;;;;4972840;28;20960;-76
2021/08/26 05:28:34;;;;;;;1.50;1.00;;;16.10;98.20;;;;;;4979473;28;20952;-76
2021/08/26 05:31:01;;;;;;;1.50;1.00;;;16.10;98.20;;;;;;4971673;28;20949;-77
2021/08/26 05:33:28;;;;;;;1.50;1.00;;;16.20;98.20;;;;;;4978445;28;20497;-77
2021/08/26 05:35:55;;;;;;;1.50;0.93;;;16.20;98.20;;;;;;4966952;28;20467;-77
2021/08/26 05:38:22;;;;;;;1.50;1.00;;;16.20;98.20;;;;;;4993083;28;20476;-77
2021/08/26 05:40:49;;;;;;;1.50;0.90;;;16.20;98.20;;;;;;4958428;28;20474;-78
2021/08/26 05:43:16;;;;;;;1.50;1.00;;;16.20;98.20;;;;;;4980332;28;20494;-76
2021/08/26 05:45:44;;;;;;;1.50;1.00;;;16.10;98.20;;;;;;4972944;28;20461;-76
2021/08/26 05:48:11;;;;;;;1.50;0.97;;;16.10;98.20;;;;;;4976313;28;20479;-77
2021/08/26 05:50:38;;;;;;;1.50;0.90;;;16.10;98.20;;;;;;4975767;28;20502;-76
2021/08/26 05:53:05;;;;;;;1.50;1.10;;;16.10;98.20;;;;;;4969865;28;20869;-77
2021/08/26 05:55:32;;;;;;;1.50;1.00;;;16.10;98.20;;;;;;4982397;28;20486;-78
2021/08/26 05:57:59;;;;;;;1.50;1.00;;;16.10;98.20;;;;;;4969452;28;20764;-78
2021/08/26 06:00:26;;;;;;;1.50;1.00;;;16.10;98.20;;;;;;4982111;28;20903;-78
2021/08/26 06:02:54;;;;;;;1.50;0.93;;;16.20;98.20;;;;;;4977754;28;20497;-77
2021/08/26 06:05:21;;;;;;;1.50;1.00;;;16.20;98.20;;;;;;4977131;28;20857;-77
2021/08/26 06:07:48;;;;;;;2.23;2.03;;;16.20;98.20;;;;;;4992058;28;21045;-78
2021/08/26 06:10:15;;;;;;;1.60;1.10;;;16.20;98.20;;;;;;4985184;28;20912;-77
2021/08/26 06:12:43;;;;;;;1.50;1.00;;;16.30;98.20;;;;;;4970153;28;20566;-76
2021/08/26 06:15:12;;;;;;;1.50;0.90;;;16.30;98.20;;;;;;4978618;28;20462;-78
2021/08/26 06:17:39;;;;;;;1.50;1.00;;;16.40;98.20;;;;;;4969362;28;20485;-77
2021/08/26 06:20:10;;;;;;;1.50;1.00;;;16.40;98.20;;;;;;4979579;28;20860;-77
2021/08/26 06:22:38;;;;;;;1.50;1.00;;;16.40;98.20;;;;;;4970040;28;20493;-77
2021/08/26 06:25:06;;;;;;;1.50;1.00;;;16.40;98.20;;;;;;4968919;28;20464;-77
2021/08/26 06:27:33;;;;;;;1.50;0.90;;;16.40;98.20;;;;;;4971972;28;20480;-78
2021/08/26 06:30:00;;;;;;;1.50;0.90;;;16.40;98.20;;;;;;4973726;28;20897;-78
2021/08/26 06:32:27;;;;;;;1.50;0.90;;;16.40;98.20;;;;;;4972956;28;20496;-77
2021/08/26 06:34:54;;;;;;;1.50;1.00;;;16.40;98.20;;;;;;4980688;28;20462;-77
2021/08/26 06:37:22;;;;;;;1.50;1.00;;;16.50;98.20;;;;;;4970854;28;20495;-78
2021/08/26 06:39:49;;;;;;;1.50;1.00;;;16.50;98.20;;;;;;4983173;28;20487;-77
2021/08/26 06:42:15;;;;;;;1.50;1.00;;;16.60;98.20;;;;;;4984325;28;20489;-77
2021/08/26 06:44:42;;;;;;;1.50;1.00;;;16.70;98.20;;;;;;4963156;28;20473;-77
2021/08/26 06:47:09;;;;;;;1.50;0.90;;;16.80;98.20;;;;;;4974868;28;20988;-78
2021/08/26 06:49:36;;;;;;;1.50;0.90;;;16.80;98.20;;;;;;4982841;28;20454;-77
2021/08/26 06:52:04;;;;;;;1.50;1.00;;;16.90;98.20;;;;;;4971328;28;20493;-78
2021/08/26 06:54:32;;;;;;;1.50;0.90;;;16.90;98.20;;;;;;4988216;28;20468;-77
2021/08/26 06:56:59;;;;;;;1.50;0.90;;;17.00;98.20;;;;;;4973400;28;20481;-78
2021/08/26 06:59:26;;;;;;;1.50;1.00;;;17.00;98.20;;;;;;4985187;28;20493;-78
2021/08/26 07:01:53;;;;;;;1.50;0.93;;;17.10;98.20;;;;;;4971156;28;20480;-77
2021/08/26 07:04:20;;;;;;;1.50;1.00;;;17.10;98.20;;;;;;4982067;28;21009;-78
2021/08/26 07:06:47;;;;;;;1.50;1.00;;;17.10;98.20;;;;;;4972315;28;20618;-78
2021/08/26 07:09:14;;;;;;;1.50;1.00;;;17.20;98.20;;;;;;4982341;28;20453;-77
2021/08/26 07:11:42;;;;;;;1.50;1.00;;;17.20;98.20;;;;;;4960186;28;20507;-78
2021/08/26 07:14:09;;;;;;;1.50;1.00;;;17.20;98.20;;;;;;4995594;28;20851;-78
2021/08/26 07:16:36;;;;;;;1.53;1.00;;;17.30;98.20;;;;;;4966328;28;20515;-77
2021/08/26 07:19:03;;;;;;;1.50;0.90;;;17.30;98.20;;;;;;4988134;28;20477;-77
2021/08/26 07:21:30;;;;;;;1.50;1.00;;;17.30;98.20;;;;;;4976833;28;20564;-77
2021/08/26 07:23:57;;;;;;;1.50;1.00;;;17.40;98.20;;;;;;4978694;28;20481;-77
2021/08/26 07:26:24;;;;;;;1.50;1.00;;;17.40;98.20;;;;;;4968054;28;20834;-77
2021/08/26 07:28:54;;;;;;;1.50;0.90;;;17.40;98.20;;;;;;4976647;28;20844;-77
2021/08/26 07:31:21;;;;;;;1.50;0.90;;;17.50;98.20;;;;;;4970709;28;20720;-77
2021/08/26 07:33:48;;;;;;;1.50;0.93;;;17.60;98.20;;;;;;4998567;28;20519;-77
2021/08/26 07:36:15;;;;;;;1.50;0.90;;;17.70;98.20;;;;;;4976797;28;20475;-77
2021/08/26 07:38:42;;;;;;;1.50;1.00;;;17.80;98.20;;;;;;4980610;28;20496;-77
2021/08/26 07:41:09;;;;;;;1.50;1.00;;;17.80;98.20;;;;;;4973766;28;20499;-77
2021/08/26 07:43:36;;;;;;;1.50;1.00;;;17.80;98.20;;;;;;4980218;28;20516;-78
2021/08/26 07:46:05;;;;;;;1.50;1.00;;;17.80;98.20;;;;;;4965178;28;20477;-78
2021/08/26 07:48:32;;;;;;;1.50;1.00;;;17.80;98.20;;;;;;4984764;28;20472;-77
2021/08/26 07:51:03;;;;;;;1.50;1.00;;;17.80;98.20;;;;;;4962443;28;20486;-78
2021/08/26 07:53:29;;;;;;;1.50;0.90;;;17.80;98.20;;;;;;4980727;28;20929;-78
2021/08/26 07:55:56;;;;;;;1.53;1.00;;;17.90;98.20;;;;;;4963925;28;20475;-77
2021/08/26 07:58:24;;;;;;;1.50;1.00;;;18.00;98.20;;;;;;4977325;28;20509;-75
2021/08/26 08:00:51;;;;;;;1.50;1.00;;;18.00;98.20;;;;;;4962330;28;20522;-78
2021/08/26 08:03:19;;;;;;;1.50;0.90;;;17.90;98.20;;;;;;4962593;28;20496;-77
2021/08/26 08:05:45;;;;;;;1.50;1.10;;;17.80;98.20;;;;;;4959430;28;20467;-77
2021/08/26 08:08:12;;;;;;;1.50;0.90;;;17.90;98.20;;;;;;4981491;28;20820;-76
2021/08/26 08:10:39;;;;;;;1.50;1.00;;;18.00;98.20;;;;;;4981279;28;20492;-78
2021/08/26 08:13:06;;;;;;;1.53;1.00;;;18.00;98.20;;;;;;4990737;28;20483;-77
2021/08/26 08:15:33;;;;;;;1.50;1.00;;;18.10;98.20;;;;;;4981092;28;20552;-76
2021/08/26 08:18:00;;;;;;;1.50;0.90;;;18.10;98.20;;;;;;4988961;28;20567;-77
2021/08/26 08:20:28;;;;;;;1.50;0.90;;;18.10;98.20;;;;;;4990914;28;20567;-76
2021/08/26 08:22:55;;;;;;;1.50;1.00;;;18.20;98.20;;;;;;4993628;28;20488;-76
2021/08/26 08:25:22;;;;;;;1.57;1.00;;;18.30;98.20;;;;;;4985139;28;20960;-76
2021/08/26 08:27:49;;;;;;;1.50;0.90;;;18.20;98.20;;;;;;4997429;28;20536;-76
2021/08/26 08:30:15;;;;;;;1.50;0.97;;;18.10;98.00;;;;;;4997643;28;20532;-77
2021/08/26 08:32:42;;;;;;;1.50;0.90;;;18.20;98.20;;;;;;4986537;28;20503;-76
2021/08/26 08:35:10;;;;;;;1.50;0.90;;;18.10;98.20;;;;;;4994521;28;20538;-77
2021/08/26 08:37:38;;;;;;;1.50;0.90;;;18.00;98.20;;;;;;4992257;28;20494;-77
2021/08/26 08:40:06;;;;;;;1.50;1.00;;;18.00;98.20;;;;;;4995774;28;20881;-77
2021/08/26 08:42:33;;;;;;;1.50;0.90;;;18.10;98.20;;;;;;4987697;28;20967;-78
2021/08/26 08:45:01;;;;;;;1.50;1.00;;;18.20;98.20;;;;;;5001142;28;20543;-76
2021/08/26 08:47:32;;;;;;;1.50;0.90;;;18.40;98.20;;;;;;4993359;28;20525;-77
2021/08/26 08:50:01;;;;;;;1.50;1.00;;;18.50;97.50;;;;;;4971038;28;20915;-78
2021/08/26 08:52:27;;;;;;;1.50;0.90;;;18.60;97.00;;;;;;4996471;28;20588;-77
2021/08/26 08:54:56;;;;;;;1.50;0.93;;;18.70;96.40;;;;;;4993923;28;20552;-77
2021/08/26 08:57:22;;;;;;;1.50;1.00;;;18.70;96.60;;;;;;4999282;28;20816;-77
2021/08/26 08:59:49;;;;;;;1.50;0.90;;;18.60;96.90;;;;;;4993704;28;20784;-75
2021/08/26 09:02:16;;;;;;;1.50;0.90;;;18.40;97.40;;;;;;4997755;28;20488;-75
2021/08/26 09:04:56;;;;;;;1.50;0.97;;;18.30;98.20;;;;;;4987822;28;20976;-75
2021/08/26 09:07:25;;;;;;;1.50;0.90;;;18.20;98.20;;;;;;4992976;28;20483;-75
2021/08/26 09:09:52;;;;;;;1.50;1.10;;;18.20;98.20;;;;;;5002538;28;20471;-76
2021/08/26 09:12:21;;;;;;;1.50;0.90;;;18.10;98.20;;;;;;4985196;28;20885;-75
2021/08/26 09:14:48;;;;;;;1.50;1.00;;;18.10;98.20;;;;;;4987623;28;20589;-76
2021/08/26 09:17:19;;;;;;;1.50;0.90;;;18.20;98.20;;;;;;4985583;28;20491;-74
2021/08/26 09:19:45;;;;;;;1.50;1.00;;;18.30;98.20;;;;;;4998751;28;20523;-76
2021/08/26 09:22:22;;;;;;;1.50;1.00;;;18.30;98.20;;;;;;4981796;28;21033;-75
2021/08/26 09:24:52;;;;;;;1.50;1.00;;;18.30;97.80;;;;;;4995548;28;20472;-75
2021/08/26 09:27:41;;;;;;;1.50;1.00;;;18.40;97.70;;;;;;4990101;28;20567;-76
2021/08/26 09:30:11;;;;;;;1.50;1.00;;;18.50;97.40;;;;;;4991441;28;20467;-76
2021/08/26 09:32:40;;;;;;;1.50;0.90;;;18.50;97.20;;;;;;4981277;28;20484;-76
2021/08/26 09:35:15;;;;;;;1.50;0.90;;;18.40;97.40;;;;;;4986497;28;20469;-74
2021/08/26 09:37:48;;;;;;;1.50;1.00;;;18.50;97.90;;;;;;4992523;28;20558;-75
2021/08/26 09:40:16;;;;;;;1.50;0.93;;;18.40;98.00;;;;;;4991531;28;20507;-75
2021/08/26 09:42:44;;;;;;;1.50;0.93;;;18.30;98.20;;;;;;4994608;28;20512;-75
2021/08/26 09:45:22;;;;;;;1.50;0.90;;;18.20;98.20;;;;;;4984960;28;21022;-75
2021/08/26 09:48:04;;;;;;;1.50;0.97;;;18.10;98.20;;;;;;4982685;28;20491;-75
2021/08/26 09:50:46;;;;;;;1.50;1.00;;;18.00;98.20;;;;;;4985955;28;20914;-75
2021/08/26 09:53:14;;;;;;;1.50;0.90;;;17.90;98.20;;;;;;4986207;28;20511;-76
2021/08/26 09:55:56;;;;;;;1.50;1.00;;;17.90;98.20;;;;;;4987883;28;20731;-76
2021/08/26 09:58:26;;;;;;;1.50;0.90;;;18.00;98.20;;;;;;4969011;28;20486;-77
2021/08/26 10:01:13;;;;;;;1.50;1.00;;;18.00;98.20;;;;;;4955636;28;20888;-76
2021/08/26 10:03:41;;;;;;;1.50;0.90;;;18.10;98.20;;;;;;4959041;28;20489;-76
2021/08/26 10:06:08;;;;;;;1.50;1.00;;;18.20;98.20;;;;;;4955455;28;20472;-77
2021/08/26 10:08:35;;;;;;;1.50;0.90;;;18.30;97.80;;;;;;4974472;28;20462;-76
2021/08/26 10:11:03;;;;;;;1.50;0.90;;;18.30;97.80;;;;;;4954916;28;20468;-76
2021/08/26 10:13:32;;;;;;;1.50;0.90;;;18.40;97.60;;;;;;4990877;28;20503;-76
2021/08/26 10:15:59;;;;;;;1.50;1.00;;;18.60;97.70;;;;;;4954908;28;20477;-77
2021/08/26 10:18:27;;;;;;;1.50;1.00;;;18.60;97.60;;;;;;4986516;28;20550;-77
2021/08/26 10:20:54;;;;;;;1.50;0.93;;;18.60;97.50;;;;;;4956263;28;20490;-76
2021/08/26 10:23:22;;;;;;;1.50;0.90;;;18.70;97.40;;;;;;4969212;28;21034;-76
2021/08/26 10:25:51;;;;;;;1.50;0.90;;;18.80;97.50;;;;;;4962283;28;21155;-76
2021/08/26 10:28:19;;;;;;;1.50;0.90;;;18.80;96.90;;;;;;4988373;28;20492;-76
2021/08/26 10:30:47;;;;;;;1.50;0.90;;;18.90;96.30;;;;;;4957688;28;20468;-75
2021/08/26 10:33:16;;;;;;;1.50;0.90;;;18.80;96.20;;;;;;4950919;28;20494;-76
2021/08/26 10:36:04;;;;;;;1.50;1.00;;;18.80;96.40;;;;;;4964792;28;20472;-77
2021/08/26 10:38:32;;;;;;;1.50;0.90;;;18.70;96.90;;;;;;4988400;28;20480;-76
2021/08/26 10:41:20;;;;;;;1.50;1.00;;;18.70;96.70;;;;;;4983978;28;21301;-77
2021/08/26 10:43:56;;;;;;;1.50;0.90;;;18.70;97.20;;;;;;4985571;28;20474;-77
2021/08/26 10:46:49;;;;;;;1.50;0.90;;;18.80;97.10;;;;;;4980588;28;20498;-76
2021/08/26 10:49:16;;;;;;;1.50;1.00;;;18.90;97.00;;;;;;4988622;28;20458;-75
2021/08/26 10:51:44;;;;;;;1.50;1.00;;;18.90;97.30;;;;;;4987525;28;20480;-76
2021/08/26 10:54:30;;;;;;;1.70;1.20;;;18.90;97.50;;;;;;4992100;28;20469;-74
2021/08/26 10:56:58;;;;;;;1.50;1.00;;;19.10;96.90;;;;;;4982031;28;20483;-77
2021/08/26 10:59:30;;;;;;;1.50;1.00;;;19.20;96.40;;;;;;4998600;28;20945;-74
2021/08/26 11:01:58;;;;;;;1.50;0.90;;;19.30;95.60;;;;;;4979018;28;21015;-76
2021/08/26 11:04:32;;;;;;;1.50;0.93;;;19.20;96.20;;;;;;4989562;28;20838;-75
2021/08/26 11:07:00;;;;;;;1.50;0.90;;;19.30;96.00;;;;;;4978368;28;20764;-76
2021/08/26 11:09:38;;;;;;;1.50;0.90;;;19.30;95.80;;;;;;4979814;28;20473;-75
2021/08/26 11:12:24;;;;;;;1.50;0.90;;;19.40;96.60;;;;;;4977688;28;20482;-76
2021/08/26 11:14:52;;;;;;;1.50;0.90;;;19.40;96.80;;;;;;4981291;28;20697;-76
2021/08/26 11:17:35;;;;;;;1.50;0.90;;;19.20;97.00;;;;;;4983424;28;21018;-75
2021/08/26 11:20:31;;;;;;;1.50;0.90;;;19.20;97.20;;;;;;4980685;28;20490;-76
2021/08/26 11:23:12;;;;;;;1.50;0.90;;;19.10;97.00;;;;;;4984134;28;20999;-76
2021/08/26 11:25:39;;;;;;;1.50;0.90;;;19.20;96.10;;;;;;4977359;28;20799;-76
2021/08/26 11:28:32;;;;;;;1.50;0.90;;;19.20;96.20;;;;;;4974596;28;20501;-76
2021/08/26 11:31:21;;;;;;;1.50;1.00;;;19.40;96.00;;;;;;4962684;28;20450;-78
2021/08/26 11:33:51;;;;;;;1.50;0.90;;;19.60;94.60;;;;;;4990393;28;20468;-76
2021/08/26 11:36:18;;;;;;;1.50;0.90;;;19.80;94.80;;;;;;4971302;28;20472;-76
2021/08/26 11:38:54;;;;;;;1.50;1.00;;;19.80;93.00;;;;;;4996084;28;20468;-76
2021/08/26 11:41:21;;;;;;;1.50;0.90;;;20.00;93.60;;;;;;4972952;28;20874;-76
2021/08/26 11:43:49;;;;;;;1.50;0.90;;;20.10;94.60;;;;;;4989772;28;20465;-76
2021/08/26 11:46:17;;;;;;;1.53;0.90;;;20.30;94.50;;;;;;4964470;28;20587;-76
2021/08/26 11:48:56;;;;;;;1.50;0.97;;;20.50;93.80;;;;;;4979370;28;20476;-76
2021/08/26 11:51:31;;;;;;;1.50;1.00;;;20.70;92.90;;;;;;4978821;28;20878;-77
2021/08/26 11:54:11;;;;;;;1.50;0.90;;;20.80;92.60;;;;;;5004378;28;20466;-76
2021/08/26 11:56:46;;;;;;;1.50;0.90;;;20.80;91.40;;;;;;4973708;28;20531;-75
2021/08/26 11:59:28;;;;;;;1.50;0.90;;;20.60;92.50;;;;;;4986295;28;20480;-77
2021/08/26 12:02:14;;;;;;;1.50;1.00;;;20.50;92.90;;;;;;4968809;28;20493;-76
2021/08/26 12:04:43;;;;;;;1.50;0.90;;;20.50;92.20;;;;;;4982731;28;20956;-75
2021/08/26 12:07:10;;;;;;;1.50;0.97;;;20.50;92.00;;;;;;4980953;28;20567;-77
2021/08/26 12:09:37;;;;;;;1.50;0.90;;;20.50;91.10;;;;;;4990983;28;20584;-76
2021/08/26 12:12:14;;;;;;;1.50;0.90;;;20.50;90.60;;;;;;4995042;28;20817;-77
2021/08/26 12:14:41;;;;;;;1.50;0.90;;;20.40;90.70;;;;;;4994003;28;20982;-76
2021/08/26 12:17:16;;;;;;;1.50;0.90;;;20.40;91.10;;;;;;4987526;28;21067;-76
2021/08/26 12:19:45;;;;;;;1.50;0.90;;;20.40;90.60;;;;;;4998862;28;20809;-77
2021/08/26 12:22:15;;;;;;;1.50;0.90;;;20.30;89.90;;;;;;4998042;28;20490;-78
2021/08/26 12:24:53;;;;;;;1.50;0.90;;;20.30;90.80;;;;;;4983142;28;20961;-77
2021/08/26 12:27:20;;;;;;;1.50;0.90;;;20.40;90.60;;;;;;4989784;28;20486;-76
2021/08/26 12:29:49;;;;;;;1.50;0.90;;;20.50;89.60;;;;;;4992828;28;20457;-75
2021/08/26 12:32:31;;;;;;;1.50;0.90;;;20.60;90.00;;;;;;4990702;28;21000;-75
2021/08/26 12:35:18;;;;;;;1.50;0.90;;;20.70;90.60;;;;;;4989087;28;20465;-76
2021/08/26 12:37:57;;;;;;;1.50;0.90;;;20.60;90.10;;;;;;4991374;28;20490;-76
2021/08/26 12:40:25;;;;;;;1.50;0.90;;;20.40;90.70;;;;;;4981465;28;20484;-76
2021/08/26 12:43:00;;;;;;;1.50;1.00;;;20.30;91.40;;;;;;4998802;28;20655;-77
2021/08/26 12:45:28;;;;;;;1.50;0.90;;;20.20;92.00;;;;;;4985202;28;20980;-77
2021/08/26 12:47:55;;;;;;;1.50;1.00;;;20.20;91.80;;;;;;4971683;28;20492;-77
2021/08/26 12:50:31;;;;;;;1.50;0.93;;;20.20;91.50;;;;;;4994093;28;20483;-77
2021/08/26 12:52:58;;;;;;;1.50;0.90;;;20.20;91.60;;;;;;4982131;28;20490;-78
2021/08/26 12:55:26;;;;;;;1.50;0.90;;;20.20;92.00;;;;;;4979543;28;20603;-76
2021/08/26 12:58:11;;;;;;;1.50;1.00;;;20.30;91.80;;;;;;4989756;28;20569;-77
2021/08/26 13:00:39;;;;;;;1.50;0.90;;;20.40;91.10;;;;;;4994526;28;20561;-77